Time;durP1;ratioP1;P1;durP2;ratioP2;P2;SDS_P1;SDS_P2;PMS_P1;PMS_P2;Temp;Humidity;BMP_temperature;BMP_pressure;BME280_temperature;BME280_humidity;BME280_pressure;Samples;Min_cycle;Max_cycle;Signal;HPM_P1;HPM_P2
2021/12/07 00:01:21;;;;;;;23.00;15.82;;;;;;;-0.65;90.43;101024.94;4864015;29;20194;-83
2021/12/07 00:03:46;;;;;;;23.45;16.52;;;;;;;-0.67;90.59;101029.28;4878780;29;20210;-83
2021/12/07 00:06:12;;;;;;;24.17;15.52;;;;;;;-0.66;90.83;101020.50;4865172;29;20189;-81
2021/12/07 00:08:40;;;;;;;21.73;14.57;;;;;;;-0.66;90.57;101031.03;4878822;29;20182;-81
2021/12/07 00:11:07;;;;;;;23.00;15.65;;;;;;;-0.69;90.47;101023.13;4879065;29;20556;-81
2021/12/07 00:13:36;;;;;;;20.98;14.20;;;;;;;-0.67;90.19;101024.03;4863853;29;20183;-81
2021/12/07 00:16:04;;;;;;;20.40;14.52;;;;;;;-0.69;90.37;101021.38;4862386;29;20189;-82
2021/12/07 00:18:29;;;;;;;21.45;14.57;;;;;;;-0.69;89.66;101010.84;4862990;29;20660;-82
2021/12/07 00:20:55;;;;;;;21.80;14.98;;;;;;;-0.64;89.33;101024.03;4878863;29;20216;-82
2021/12/07 00:23:20;;;;;;;22.70;14.93;;;;;;;-0.69;89.71;101013.47;4880200;29;20178;-82
2021/12/07 00:25:46;;;;;;;20.10;13.80;;;;;;;-0.68;89.38;101003.81;4866374;29;20344;-82
2021/12/07 00:28:12;;;;;;;22.02;14.45;;;;;;;-0.72;89.91;100996.75;4864796;29;20289;-81
2021/12/07 00:30:37;;;;;;;20.88;14.15;;;;;;;-0.72;89.38;100996.75;4865874;29;20229;-81
2021/12/07 00:33:44;;;;;;;21.60;14.93;;;;;;;-0.74;89.72;101006.41;4864144;29;20703;-81
2021/12/07 00:35:56;;;;;;;21.75;13.60;;;;;;;-0.74;89.84;101007.28;4851869;29;20265;-81
2021/12/07 00:38:24;;;;;;;19.33;14.43;;;;;;;-0.76;89.85;101000.25;4870227;29;20228;-80
2021/12/07 00:40:51;;;;;;;18.38;13.07;;;;;;;-0.75;89.85;100994.13;4868940;29;20206;-80
2021/12/07 00:43:17;;;;;;;22.95;14.30;;;;;;;-0.79;90.02;100989.69;4878590;29;20298;-80
2021/12/07 00:45:45;;;;;;;20.75;14.45;;;;;;;-0.76;89.81;100995.00;4886911;29;20192;-80
2021/12/07 00:48:13;;;;;;;22.63;15.45;;;;;;;-0.70;90.07;100981.88;4854061;29;20192;-80
2021/12/07 00:50:41;;;;;;;22.13;15.02;;;;;;;-0.75;89.90;100978.31;4885230;29;20213;-81
2021/12/07 00:53:08;;;;;;;23.33;14.93;;;;;;;-0.75;89.99;100983.59;4886413;29;20244;-81
2021/12/07 00:55:47;;;;;;;20.38;14.63;;;;;;;-0.80;89.67;100986.19;4884917;29;20176;-80
2021/12/07 00:58:18;;;;;;;22.10;15.05;;;;;;;-0.84;89.97;100987.00;4869445;29;20178;-80
2021/12/07 01:00:56;;;;;;;23.48;15.88;;;;;;;-0.85;90.45;100986.13;4884493;29;20240;-80
2021/12/07 01:03:22;;;;;;;20.25;14.52;;;;;;;-0.84;90.30;100990.50;4869486;29;20191;-80
2021/12/07 01:05:52;;;;;;;23.92;15.38;;;;;;;-0.80;90.79;100990.56;4885652;29;20228;-80
2021/12/07 01:08:48;;;;;;;23.73;16.02;;;;;;;-0.88;91.23;100988.72;4868738;29;20192;-80
2021/12/07 01:24:44;;;;;;;25.73;17.92;;;;;;;-0.92;92.43;100984.31;4877076;29;20214;-80
2021/12/07 01:27:12;;;;;;;23.17;16.30;;;;;;;-0.91;92.18;100980.78;4905204;29;20228;-80
2021/12/07 01:29:41;;;;;;;26.40;17.63;;;;;;;-0.90;92.50;100974.66;4881245;29;20180;-80
2021/12/07 01:32:21;;;;;;;22.75;16.50;;;;;;;-0.93;92.45;100990.41;4878852;29;20177;-80
2021/12/07 01:40:28;;;;;;;25.85;16.60;;;;;;;-0.94;93.23;100978.16;4894131;29;20247;-80
2021/12/07 02:01:46;;;;;;;25.55;18.17;;;;;;;-1.00;94.09;100978.06;4890021;29;20217;-81
2021/12/07 02:04:11;;;;;;;26.77;18.23;;;;;;;-1.03;94.39;100975.38;4890675;29;20337;-80
2021/12/07 02:06:37;;;;;;;25.65;17.52;;;;;;;-1.01;93.95;100976.28;4890148;29;20219;-80
2021/12/07 02:09:05;;;;;;;23.70;17.02;;;;;;;-1.07;94.34;100973.63;4859034;29;20181;-80
2021/12/07 02:11:32;;;;;;;27.90;18.92;;;;;;;-1.03;94.43;100975.38;4890357;29;20201;-80
2021/12/07 02:16:29;;;;;;;29.10;17.58;;;;;;;-1.01;94.25;100972.78;4889545;29;20238;-82
2021/12/07 02:18:55;;;;;;;27.20;17.38;;;;;;;-1.00;94.26;100972.81;4892928;29;20181;-81
2021/12/07 02:21:26;;;;;;;23.35;16.42;;;;;;;-0.94;94.07;100969.34;4893259;29;20215;-82
2021/12/07 02:24:08;;;;;;;24.02;17.15;;;;;;;-0.98;94.03;100963.19;4877599;29;20459;-82
2021/12/07 02:26:34;;;;;;;25.50;16.45;;;;;;;-0.98;93.97;100967.59;4893381;29;20181;-82
2021/12/07 02:29:00;;;;;;;27.00;17.45;;;;;;;-0.93;93.85;100976.41;4861757;29;20601;-82
2021/12/07 02:31:26;;;;;;;25.35;17.38;;;;;;;-0.98;93.82;100963.19;4879079;29;20214;-82
2021/12/07 02:33:52;;;;;;;26.35;17.85;;;;;;;-0.97;93.96;100962.31;4892991;29;20200;-82
2021/12/07 02:36:17;;;;;;;26.55;18.80;;;;;;;-0.98;93.72;100954.44;4893544;29;20181;-83
2021/12/07 02:38:43;;;;;;;27.77;18.75;;;;;;;-0.97;94.27;100961.44;4876732;29;20177;-82
2021/12/07 02:41:09;;;;;;;27.42;18.55;;;;;;;-1.01;94.30;100954.38;4877514;29;20208;-82
2021/12/07 02:43:35;;;;;;;25.15;17.42;;;;;;;-0.96;93.89;100964.09;4893659;29;20256;-83
2021/12/07 02:46:01;;;;;;;24.98;17.65;;;;;;;-0.98;93.91;100957.94;4893280;29;20296;-83
2021/12/07 02:48:26;;;;;;;26.90;18.08;;;;;;;-0.99;94.13;100956.16;4892334;29;20181;-83
2021/12/07 02:50:56;;;;;;;27.23;18.27;;;;;;;-0.98;93.81;100963.19;4877032;29;20292;-83
2021/12/07 02:53:28;;;;;;;27.35;16.83;;;;;;;-0.96;94.04;100964.09;4960752;23;21218;-78
2021/12/07 02:55:58;;;;;;;26.40;18.60;;;;;;;-1.00;94.11;100964.94;4901817;29;20795;-79
2021/12/07 02:58:26;;;;;;;25.63;17.80;;;;;;;-1.03;94.14;100962.25;4901311;29;20180;-80
2021/12/07 03:01:02;;;;;;;25.38;18.15;;;;;;;-1.04;94.14;100971.00;4908451;29;20197;-80
2021/12/07 03:03:33;;;;;;;26.13;17.77;;;;;;;-0.98;94.42;100963.19;4899280;29;20181;-82
2021/12/07 03:28:00;;;;;;;29.92;18.77;;;;;;;-1.00;94.59;100993.84;4898811;29;20185;-81
2021/12/07 03:30:30;;;;;;;28.27;19.77;;;;;;;-1.02;94.95;100986.81;4898712;29;20228;-79
2021/12/07 03:32:57;;;;;;;30.23;19.67;;;;;;;-1.08;94.63;100984.97;4882736;29;20172;-81
2021/12/07 03:35:23;;;;;;;29.20;19.98;;;;;;;-1.06;95.13;100993.78;4897243;29;20179;-81
2021/12/07 03:37:50;;;;;;;32.38;21.00;;;;;;;-1.09;95.01;100994.63;4895219;29;20184;-81
2021/12/07 03:40:16;;;;;;;27.70;17.98;;;;;;;-1.10;95.29;100986.72;4895711;29;20581;-81
2021/12/07 03:42:42;;;;;;;26.90;18.40;;;;;;;-1.13;95.26;100986.69;4895544;29;20257;-79
2021/12/07 03:45:12;;;;;;;25.95;19.10;;;;;;;-1.06;94.99;100991.16;4920288;24;20659;-81
2021/12/07 03:47:38;;;;;;;28.70;18.02;;;;;;;-1.06;94.79;101001.66;4865238;29;20215;-81
2021/12/07 03:50:07;;;;;;;29.67;20.30;;;;;;;-1.07;94.74;100999.91;4876376;29;20201;-81
2021/12/07 03:52:32;;;;;;;32.65;20.52;;;;;;;-1.09;94.86;101010.41;4884967;29;20208;-81
2021/12/07 03:54:58;;;;;;;25.98;19.02;;;;;;;-1.10;95.00;101000.72;4961817;23;20223;-81
2021/12/07 03:57:24;;;;;;;30.67;19.65;;;;;;;-1.14;95.03;100998.91;4912031;29;20263;-80
2021/12/07 03:59:52;;;;;;;29.55;20.35;;;;;;;-1.17;95.56;100995.41;4885814;29;20609;-81
2021/12/07 04:02:18;;;;;;;29.48;19.67;;;;;;;-1.15;95.73;101005.06;4901999;29;20180;-81
2021/12/07 04:04:48;;;;;;;29.88;19.85;;;;;;;-1.19;95.78;101010.25;4870196;29;20769;-83
2021/12/07 04:07:14;;;;;;;27.02;20.10;;;;;;;-1.16;96.48;101018.19;4868361;29;20194;-81
2021/12/07 04:09:39;;;;;;;31.25;19.75;;;;;;;-1.16;96.09;101010.28;4884589;29;20649;-81
2021/12/07 04:12:05;;;;;;;29.80;20.15;;;;;;;-1.17;96.23;100998.03;4901268;29;20181;-81
2021/12/07 04:14:31;;;;;;;33.63;21.90;;;;;;;-1.15;96.34;101006.81;4872604;29;20523;-81
2021/12/07 04:16:56;;;;;;;32.15;21.23;;;;;;;-1.17;96.57;100992.75;4899516;29;20673;-81
2021/12/07 04:19:23;;;;;;;30.05;19.95;;;;;;;-1.18;96.56;100986.63;4900867;29;20183;-82
2021/12/07 04:21:48;;;;;;;29.75;20.33;;;;;;;-1.17;97.10;100992.75;4873460;29;20198;-81
2021/12/07 04:24:14;;;;;;;31.40;21.70;;;;;;;-1.15;96.26;100996.28;4883489;29;20571;-81
2021/12/07 04:26:40;;;;;;;33.33;21.48;;;;;;;-1.12;96.83;101001.56;4900412;29;20633;-81
2021/12/07 04:29:05;;;;;;;32.58;21.27;;;;;;;-1.16;96.45;101000.69;4867806;29;20204;-82
2021/12/07 04:31:31;;;;;;;33.67;22.25;;;;;;;-1.15;96.94;100998.94;4882609;29;20201;-82
2021/12/07 04:33:56;;;;;;;34.97;22.63;;;;;;;-1.12;96.63;100988.44;4899648;29;20646;-82
2021/12/07 04:36:22;;;;;;;31.85;20.80;;;;;;;-1.09;97.00;101004.25;4899612;29;20666;-82
2021/12/07 04:38:47;;;;;;;32.47;21.77;;;;;;;-1.13;97.11;101003.34;4900175;29;20240;-82
2021/12/07 04:41:13;;;;;;;32.40;21.42;;;;;;;-1.14;96.77;100998.03;4900899;29;20337;-82
2021/12/07 04:43:40;;;;;;;32.58;21.58;;;;;;;-1.09;97.16;101012.16;4872078;29;20193;-84
2021/12/07 04:46:24;;;;;;;33.28;22.50;;;;;;;-1.09;96.88;101015.66;4850346;29;20208;-80
2021/12/07 04:59:30;;;;;;;35.72;22.27;;;;;;;-1.07;97.28;100999.91;4886843;29;20216;-80
2021/12/07 05:01:56;;;;;;;37.95;22.27;;;;;;;-1.06;97.37;101007.78;4898798;29;20586;-82
2021/12/07 05:04:26;;;;;;;32.33;21.25;;;;;;;-1.06;97.13;101001.66;4868142;29;20268;-83
2021/12/07 05:06:56;;;;;;;35.47;21.80;;;;;;;-1.05;97.37;101008.66;4866302;29;20607;-82
2021/12/07 05:14:36;;;;;;;31.58;21.30;;;;;;;-1.01;97.38;100997.31;4844970;29;20181;-82
2021/12/07 05:17:38;;;;;;;33.55;21.05;;;;;;;-1.01;97.29;101007.84;4939339;23;20237;-82
2021/12/07 05:39:12;;;;;;;34.40;22.58;;;;;;;-0.93;97.12;101027.22;4863352;29;20222;-82
2021/12/07 05:41:38;;;;;;;35.13;22.98;;;;;;;-0.92;97.11;101009.69;4845607;29;20702;-82
2021/12/07 05:44:03;;;;;;;34.78;22.38;;;;;;;-0.91;96.44;101000.97;4863004;29;20242;-83
2021/12/07 05:46:29;;;;;;;34.90;23.27;;;;;;;-0.93;96.79;101008.81;4846707;29;20178;-80
2021/12/07 05:48:54;;;;;;;35.72;22.92;;;;;;;-0.91;96.59;101008.84;4847957;29;20189;-82
2021/12/07 05:51:20;;;;;;;37.25;23.60;;;;;;;-0.93;96.47;100998.31;4847219;29;20718;-81
2021/12/07 05:53:45;;;;;;;39.53;24.08;;;;;;;-0.90;96.95;101002.72;4863791;29;20196;-80
2021/12/07 05:56:11;;;;;;;38.72;24.40;;;;;;;-0.91;97.07;101008.84;4847089;29;20170;-81
2021/12/07 05:58:36;;;;;;;36.50;24.10;;;;;;;-0.90;96.25;101000.09;4847803;29;20183;-81
2021/12/07 06:01:02;;;;;;;37.40;23.85;;;;;;;-0.92;96.38;101001.81;4846735;29;20205;-82
2021/12/07 06:03:28;;;;;;;36.28;22.63;;;;;;;-0.87;96.41;101010.66;4848544;29;20186;-82
2021/12/07 06:05:55;;;;;;;34.42;23.17;;;;;;;-0.89;96.43;101009.75;4846365;29;20262;-83
2021/12/07 06:08:21;;;;;;;35.35;22.27;;;;;;;-0.86;96.62;101020.28;4845927;29;20250;-84
2021/12/07 06:10:47;;;;;;;34.75;22.67;;;;;;;-0.88;96.23;101011.50;4846112;29;20220;-84
2021/12/07 06:13:12;;;;;;;35.28;23.42;;;;;;;-0.88;96.33;101003.63;4845343;29;20190;-84
2021/12/07 06:15:42;;;;;;;33.53;22.50;;;;;;;-0.89;96.15;101021.16;4862951;29;20687;-84
2021/12/07 06:18:08;;;;;;;35.05;22.73;;;;;;;-0.87;95.89;101021.19;4845466;29;20189;-83
2021/12/07 06:20:34;;;;;;;36.70;23.80;;;;;;;-0.87;96.05;101024.69;4846229;29;20190;-84
2021/12/07 06:22:59;;;;;;;31.85;21.23;;;;;;;-0.87;96.30;101024.69;4846935;29;20588;-84
2021/12/07 06:25:25;;;;;;;34.83;23.13;;;;;;;-0.88;95.82;101022.91;4848661;29;20234;-84
2021/12/07 06:27:50;;;;;;;34.80;23.15;;;;;;;-0.86;96.04;101031.69;4865099;29;20546;-83
2021/12/07 06:30:16;;;;;;;32.70;21.73;;;;;;;-0.85;96.04;101020.31;4865985;29;20190;-84
2021/12/07 06:32:41;;;;;;;33.42;22.58;;;;;;;-0.84;96.05;101036.97;4845684;29;20554;-83
2021/12/07 06:35:08;;;;;;;33.40;21.95;;;;;;;-0.85;95.70;101037.88;4845773;29;20644;-83
2021/12/07 06:37:33;;;;;;;32.92;21.20;;;;;;;-0.85;95.50;101048.38;4847729;29;20253;-83
2021/12/07 06:39:59;;;;;;;34.33;21.73;;;;;;;-0.83;95.68;101044.03;4864107;29;20221;-83
2021/12/07 06:42:25;;;;;;;32.97;21.75;;;;;;;-0.84;95.43;101047.50;4848232;29;20170;-83
2021/12/07 06:44:50;;;;;;;32.47;21.52;;;;;;;-0.82;95.36;101043.16;4848613;29;20251;-82
2021/12/07 06:47:16;;;;;;;32.67;22.00;;;;;;;-0.82;95.52;101043.16;4846587;29;20209;-83
2021/12/07 06:52:31;;;;;;;29.60;20.73;;;;;;;-0.80;95.45;101048.44;4872402;29;20208;-84
2021/12/07 06:54:58;;;;;;;32.78;20.95;;;;;;;-0.79;95.37;101056.31;4860708;29;20190;-84
2021/12/07 06:57:24;;;;;;;30.88;21.42;;;;;;;-0.79;95.20;101058.94;4865528;29;20260;-81
2021/12/07 06:59:51;;;;;;;33.55;21.38;;;;;;;-0.80;95.17;101051.94;4852185;29;20188;-82
2021/12/07 07:02:17;;;;;;;34.70;21.98;;;;;;;-0.77;95.14;101056.34;4881668;29;20185;-82
2021/12/07 07:07:24;;;;;;;28.55;20.23;;;;;;;-0.74;94.84;101056.41;4969412;23;20236;-83
2021/12/07 07:09:51;;;;;;;30.50;20.05;;;;;;;-0.77;94.79;101059.84;4898005;29;20196;-84
2021/12/07 07:12:17;;;;;;;29.83;20.13;;;;;;;-0.77;94.53;101046.69;4881620;29;20272;-83
2021/12/07 07:14:42;;;;;;;29.98;19.17;;;;;;;-0.77;94.48;101048.47;4862095;29;20206;-83
2021/12/07 07:17:09;;;;;;;29.80;19.98;;;;;;;-0.75;93.92;101041.47;4877080;29;20256;-83
2021/12/07 07:19:34;;;;;;;31.48;19.85;;;;;;;-0.76;94.46;101042.34;4866371;29;20631;-83
2021/12/07 07:22:01;;;;;;;28.95;18.92;;;;;;;-0.73;93.99;101050.25;4874044;29;20216;-83
2021/12/07 07:24:30;;;;;;;31.45;19.52;;;;;;;-0.74;93.37;101053.78;4883758;29;20201;-82
2021/12/07 07:26:59;;;;;;;27.23;18.73;;;;;;;-0.69;92.94;101049.44;4866717;29;20194;-83
2021/12/07 07:29:24;;;;;;;25.58;17.38;;;;;;;-0.70;92.91;101052.91;4864221;29;20170;-82
2021/12/07 07:31:50;;;;;;;24.23;16.65;;;;;;;-0.74;92.75;101057.28;4885733;29;20292;-81
2021/12/07 07:34:17;;;;;;;25.02;16.92;;;;;;;-0.72;92.36;101067.78;4889918;29;20201;-83
2021/12/07 07:39:22;;;;;;;23.30;15.48;;;;;;;-0.73;91.74;101066.91;4845005;29;20680;-81
2021/12/07 07:41:48;;;;;;;25.40;16.55;;;;;;;-0.73;91.73;101059.03;4842012;29;20228;-82
2021/12/07 07:44:14;;;;;;;23.73;16.55;;;;;;;-0.74;91.50;101067.81;4837549;29;20672;-81
2021/12/07 07:46:53;;;;;;;24.52;15.80;;;;;;;-0.70;90.95;101072.25;4815213;29;20193;-82
2021/12/07 07:49:18;;;;;;;22.88;15.88;;;;;;;-0.71;91.20;101067.81;4837745;29;20179;-84
2021/12/07 07:55:25;;;;;;;23.42;14.65;;;;;;;-0.72;90.53;101078.31;4839767;29;20284;-83
2021/12/07 07:57:50;;;;;;;20.50;14.50;;;;;;;-0.68;90.67;101075.78;4820589;29;20241;-83
2021/12/07 08:00:18;;;;;;;19.60;13.57;;;;;;;-0.68;89.98;101080.13;4829326;29;20198;-82
2021/12/07 08:02:45;;;;;;;20.50;14.45;;;;;;;-0.67;90.29;101071.38;4828936;29;20182;-83
2021/12/07 08:05:11;;;;;;;20.77;14.10;;;;;;;-0.68;90.36;101074.88;4817378;29;20211;-83
2021/12/07 08:07:59;;;;;;;23.48;14.80;;;;;;;-0.66;90.43;101076.69;4848005;29;20234;-85
2021/12/07 08:10:29;;;;;;;20.05;13.27;;;;;;;-0.66;89.65;101076.69;4830974;29;20207;-84
2021/12/07 08:13:02;;;;;;;20.95;14.98;;;;;;;-0.66;90.26;101086.28;4834884;29;20190;-81
2021/12/07 08:15:30;;;;;;;19.75;13.68;;;;;;;-0.63;89.83;101088.97;4849004;29;20259;-83
2021/12/07 08:17:56;;;;;;;20.98;13.57;;;;;;;-0.65;90.12;101093.34;4846611;29;20270;-83
2021/12/07 08:20:26;;;;;;;18.48;13.35;;;;;;;-0.63;89.89;101074.06;4831141;29;20198;-84
2021/12/07 08:22:51;;;;;;;21.05;13.77;;;;;;;-0.61;89.75;101084.63;4828354;29;20685;-83
2021/12/07 08:25:17;;;;;;;20.98;14.10;;;;;;;-0.64;90.00;101082.81;4824203;29;20279;-83
2021/12/07 08:27:42;;;;;;;20.95;13.88;;;;;;;-0.63;89.83;101087.22;4823302;29;20661;-84
2021/12/07 08:30:10;;;;;;;20.38;13.88;;;;;;;-0.64;89.62;101084.56;4829097;29;20198;-83
2021/12/07 08:32:36;;;;;;;19.55;13.07;;;;;;;-0.60;90.28;101085.50;4830407;29;20194;-84
2021/12/07 08:35:02;;;;;;;19.45;13.80;;;;;;;-0.57;89.49;101069.72;4849988;29;20182;-83
2021/12/07 08:37:28;;;;;;;20.50;14.68;;;;;;;-0.59;90.35;101061.84;4829271;29;20274;-84
2021/12/07 08:39:53;;;;;;;19.60;13.43;;;;;;;-0.59;89.71;101061.84;4846126;29;20197;-83
2021/12/07 08:42:19;;;;;;;21.95;15.23;;;;;;;-0.60;89.23;101070.59;4827619;29;20809;-82
2021/12/07 08:44:46;;;;;;;21.42;14.00;;;;;;;-0.57;89.49;101065.34;4813724;29;20304;-81
2021/12/07 08:47:11;;;;;;;18.13;13.77;;;;;;;-0.55;89.99;101075.88;4798820;29;20217;-83
2021/12/07 08:49:37;;;;;;;19.25;13.75;;;;;;;-0.59;89.42;101074.09;4819622;29;20187;-83
2021/12/07 08:52:03;;;;;;;22.13;14.18;;;;;;;-0.52;89.14;101079.44;4829020;29;20182;-83
2021/12/07 08:59:36;;;;;;;20.55;14.57;;;;;;;-0.54;89.55;101077.69;4843149;29;20203;-82
2021/12/07 08:59:59;;;;;;;18.58;13.43;;;;;;;-0.51;89.02;101081.19;4826434;29;20223;-83
2021/12/07 09:02:26;;;;;;;21.38;14.60;;;;;;;-0.47;89.30;101084.75;4827337;29;20676;-82
2021/12/07 09:04:55;;;;;;;19.65;14.30;;;;;;;-0.51;89.00;101082.97;4844631;29;20198;-82
2021/12/07 09:07:23;;;;;;;20.30;13.73;;;;;;;-0.45;88.88;101090.94;4844682;29;20186;-81
2021/12/07 09:09:49;;;;;;;21.05;14.43;;;;;;;-0.48;88.81;101102.31;4843381;29;20238;-83
2021/12/07 09:12:17;;;;;;;20.50;13.48;;;;;;;-0.43;89.47;101092.72;4827406;29;20601;-84
2021/12/07 09:14:43;;;;;;;22.70;14.45;;;;;;;-0.46;89.59;101091.78;4844811;29;20194;-83
2021/12/07 09:17:11;;;;;;;19.95;14.10;;;;;;;-0.40;88.67;101105.00;4843356;29;20194;-83
2021/12/07 09:19:36;;;;;;;19.20;14.02;;;;;;;-0.43;89.47;101108.50;4827690;29;20239;-82
2021/12/07 09:22:03;;;;;;;21.17;15.00;;;;;;;-0.45;89.04;101094.44;4796317;29;20210;-81
2021/12/07 09:24:28;;;;;;;22.92;14.93;;;;;;;-0.45;89.51;101102.34;4810030;29;20222;-82
2021/12/07 09:26:55;;;;;;;19.67;14.38;;;;;;;-0.34;89.04;101107.72;4810209;29;20188;-83
2021/12/07 09:29:21;;;;;;;20.75;13.90;;;;;;;-0.39;89.16;101113.78;4812560;29;20262;-83
2021/12/07 09:31:46;;;;;;;18.38;14.07;;;;;;;-0.40;88.89;101102.38;4827423;29;20221;-83
2021/12/07 09:34:12;;;;;;;20.00;15.10;;;;;;;-0.40;89.11;101107.66;4830482;29;20178;-82
2021/12/07 09:36:40;;;;;;;22.52;15.18;;;;;;;-0.39;89.18;101105.88;4837628;29;20190;-82
2021/12/07 09:39:08;;;;;;;21.02;14.82;;;;;;;-0.36;89.77;101092.78;4843931;29;20320;-83
2021/12/07 09:41:34;;;;;;;19.77;14.48;;;;;;;-0.39;89.63;101085.75;4827267;29;20209;-83
2021/12/07 09:44:00;;;;;;;20.38;14.43;;;;;;;-0.45;90.08;101077.78;4827315;29;20208;-82
2021/12/07 09:46:25;;;;;;;21.65;15.10;;;;;;;-0.44;90.26;101090.03;4827601;29;20403;-82
2021/12/07 09:48:51;;;;;;;20.23;14.43;;;;;;;-0.44;90.35;101088.31;4826683;29;20195;-82
2021/12/07 09:51:19;;;;;;;20.90;15.00;;;;;;;-0.41;89.85;101084.84;4843994;29;20311;-81
2021/12/07 09:53:47;;;;;;;24.13;15.95;;;;;;;-0.35;90.62;101100.69;4845437;29;20629;-81
2021/12/07 09:56:14;;;;;;;22.70;15.75;;;;;;;-0.38;89.69;101094.50;4829797;29;20210;-81
2021/12/07 09:58:40;;;;;;;21.80;14.27;;;;;;;-0.37;90.01;101105.06;4845057;29;20179;-81
2021/12/07 10:01:07;;;;;;;23.38;15.75;;;;;;;-0.39;90.08;101090.09;4828691;29;20265;-81
2021/12/07 10:03:33;;;;;;;22.83;16.10;;;;;;;-0.37;89.83;101099.81;4828423;29;20179;-81
2021/12/07 10:05:59;;;;;;;23.85;15.60;;;;;;;-0.35;90.43;101100.69;4828073;29;20202;-81
2021/12/07 10:08:24;;;;;;;21.55;15.63;;;;;;;-0.30;90.71;101092.84;4845546;29;20625;-81
2021/12/07 10:10:55;;;;;;;22.95;15.82;;;;;;;-0.30;90.13;101093.72;4828731;29;20529;-80
2021/12/07 10:13:23;;;;;;;21.27;15.23;;;;;;;-0.23;90.85;101097.31;4829552;29;20190;-80
2021/12/07 10:15:51;;;;;;;24.33;16.30;;;;;;;-0.20;90.37;101094.69;4813065;29;20182;-82
2021/12/07 10:18:19;;;;;;;22.40;16.60;;;;;;;-0.13;90.70;101087.72;4843378;29;20198;-82
2021/12/07 10:20:56;;;;;;;28.73;18.38;;;;;;;-0.10;90.66;101090.41;4845361;29;20220;-81
2021/12/07 10:23:37;;;;;;;20.13;15.85;;;;;;;-0.13;90.71;101086.00;4844461;29;20188;-81
2021/12/07 10:26:06;;;;;;;25.20;17.08;;;;;;;-0.04;90.07;101096.63;4859886;29;20210;-81
2021/12/07 10:28:39;;;;;;;21.60;15.23;;;;;;;-0.04;90.39;101099.25;4862219;29;20186;-81
2021/12/07 10:31:10;;;;;;;23.50;17.00;;;;;;;-0.01;90.39;101085.22;4847290;29;20192;-82
2021/12/07 10:33:46;;;;;;;21.90;15.23;;;;;;;-0.10;90.21;101074.59;4863998;29;20181;-81
2021/12/07 10:36:25;;;;;;;21.02;15.48;;;;;;;0.04;90.52;101070.34;4831251;29;20184;-82
2021/12/07 10:39:06;;;;;;;23.23;15.98;;;;;;;0.02;90.72;101065.91;4862858;29;20284;-81
2021/12/07 10:41:35;;;;;;;24.73;16.83;;;;;;;0.05;90.43;101074.75;4846450;29;20204;-80
2021/12/07 10:44:00;;;;;;;21.10;15.85;;;;;;;0.17;89.96;101066.94;4864107;29;20298;-83
2021/12/07 10:46:31;;;;;;;22.08;15.70;;;;;;;0.13;89.83;101074.78;4864300;29;20174;-80
2021/12/07 10:49:42;;;;;;;21.13;15.80;;;;;;;0.12;90.46;101078.31;4843409;29;20223;-82
2021/12/07 10:52:13;;;;;;;21.77;15.27;;;;;;;0.08;90.55;101072.13;4827201;29;20672;-83
2021/12/07 10:54:50;;;;;;;22.75;15.70;;;;;;;0.07;90.65;101070.38;4812772;29;20190;-81
2021/12/07 10:57:29;;;;;;;22.17;15.75;;;;;;;0.18;90.47;101073.09;4842014;29;20612;-80
2021/12/07 11:00:03;;;;;;;22.55;16.08;;;;;;;0.16;90.55;101049.38;4851131;29;20249;-80
2021/12/07 11:02:33;;;;;;;22.75;16.58;;;;;;;0.17;90.44;101058.16;4840029;29;20182;-80
2021/12/07 11:05:01;;;;;;;21.27;16.15;;;;;;;0.08;90.93;101044.91;4853945;29;20281;-80
2021/12/07 11:07:29;;;;;;;26.33;18.40;;;;;;;0.05;91.05;101042.25;4837735;29;20177;-80
2021/12/07 11:10:17;;;;;;;21.98;15.60;;;;;;;0.09;90.73;101041.38;4868600;29;20670;-81
2021/12/07 11:12:49;;;;;;;24.98;16.67;;;;;;;0.18;91.13;101036.22;4852424;29;20582;-81
2021/12/07 11:15:23;;;;;;;21.38;16.33;;;;;;;0.22;90.91;101035.38;4837562;29;20245;-80
2021/12/07 11:17:50;;;;;;;21.63;15.23;;;;;;;0.12;91.01;101030.91;4850949;29;20175;-83
2021/12/07 11:20:15;;;;;;;24.98;17.25;;;;;;;0.14;90.72;101037.06;4869625;29;20189;-83
2021/12/07 11:22:45;;;;;;;24.02;17.30;;;;;;;0.08;91.24;101034.38;4867312;29;20181;-83
2021/12/07 11:25:21;;;;;;;24.05;17.55;;;;;;;0.14;92.17;101052.88;4848058;29;20759;-83
2021/12/07 11:30:32;;;;;;;23.95;17.88;;;;;;;0.29;91.58;101042.44;4864810;29;20206;-83
2021/12/07 11:33:01;;;;;;;24.58;16.83;;;;;;;0.26;91.16;101057.34;4850125;29;20178;-81
2021/12/07 11:35:33;;;;;;;25.15;17.90;;;;;;;0.22;91.11;101059.09;4868744;29;20734;-81
2021/12/07 11:38:03;;;;;;;23.90;17.58;;;;;;;0.27;91.96;101056.47;4832924;29;20202;-82
2021/12/07 11:40:33;;;;;;;24.95;18.30;;;;;;;0.17;91.65;101050.25;4849695;29;20197;-80
2021/12/07 11:42:59;;;;;;;32.55;24.50;;;;;;;0.24;91.67;101036.28;4866478;29;20186;-82
2021/12/07 11:45:30;;;;;;;23.20;17.38;;;;;;;0.20;91.84;101043.25;4847179;29;20583;-83
2021/12/07 11:48:02;;;;;;;27.40;19.05;;;;;;;0.21;92.34;101059.94;4846292;29;20170;-83
2021/12/07 11:50:47;;;;;;;24.35;17.60;;;;;;;0.28;92.40;101053.84;4862911;29;20259;-83
2021/12/07 11:53:22;;;;;;;27.45;18.63;;;;;;;0.30;92.16;101043.31;4847890;29;20193;-81
2021/12/07 11:55:51;;;;;;;30.30;19.20;;;;;;;0.31;92.40;101038.06;4848019;29;20205;-82
2021/12/07 11:58:18;;;;;;;27.20;19.02;;;;;;;0.23;92.46;101050.28;4864694;29;20315;-82
2021/12/07 12:00:49;;;;;;;27.42;18.35;;;;;;;0.36;93.18;101041.59;4865164;29;20628;-82
2021/12/07 12:03:17;;;;;;;27.67;19.17;;;;;;;0.30;93.42;101041.56;4863858;29;20628;-82
2021/12/07 12:05:46;;;;;;;26.52;18.42;;;;;;;0.47;94.18;101032.91;4830174;29;20201;-81
2021/12/07 12:08:14;;;;;;;28.67;19.65;;;;;;;0.37;94.15;101030.22;4861383;29;20222;-81
2021/12/07 12:10:43;;;;;;;25.15;19.67;;;;;;;0.36;93.57;101030.19;4848540;29;20202;-80
2021/12/07 12:13:17;;;;;;;33.00;21.48;;;;;;;0.53;94.23;101027.66;4833513;29;20643;-80
2021/12/07 12:15:54;;;;;;;30.00;20.73;;;;;;;0.39;94.39;101031.09;4847557;29;20679;-83
2021/12/07 12:18:42;;;;;;;35.83;22.52;;;;;;;0.39;93.71;101030.19;4861750;29;20178;-81
2021/12/07 12:21:19;;;;;;;29.90;19.65;;;;;;;0.43;93.89;101039.88;4845303;29;20576;-81
2021/12/07 12:24:08;;;;;;;28.17;19.55;;;;;;;0.44;93.70;101041.66;4845123;29;20190;-82
2021/12/07 12:26:35;;;;;;;28.50;20.08;;;;;;;0.51;94.15;101053.13;4834825;29;20206;-82
2021/12/07 12:29:01;;;;;;;39.75;25.52;;;;;;;0.52;94.08;101050.50;4845409;29;20179;-82
2021/12/07 12:31:57;;;;;;;29.75;20.02;;;;;;;0.58;93.89;101055.81;4844719;29;20629;-83
2021/12/07 12:34:26;;;;;;;29.63;20.58;;;;;;;0.54;93.73;101054.03;4824273;29;20716;-82
2021/12/07 12:37:01;;;;;;;30.63;21.45;;;;;;;0.79;95.09;101065.59;4811412;29;20179;-83
2021/12/07 12:40:22;;;;;;;34.97;22.88;;;;;;;0.90;95.91;101051.59;4826486;29;20255;-83
2021/12/07 12:42:51;;;;;;;34.83;22.70;;;;;;;0.70;94.60;101051.47;4786411;29;20185;-83
2021/12/07 12:45:37;;;;;;;28.27;20.67;;;;;;;0.79;94.71;101056.81;4840523;29;20267;-82
2021/12/07 12:48:18;;;;;;;32.25;21.88;;;;;;;0.82;94.42;101054.19;4829652;29;20167;-82
2021/12/07 12:50:43;;;;;;;29.52;20.67;;;;;;;0.74;94.14;101048.84;4859576;29;20218;-82
2021/12/07 12:53:21;;;;;;;27.33;19.48;;;;;;;0.71;94.15;101048.84;4846390;29;20183;-81
2021/12/07 12:55:56;;;;;;;33.60;23.17;;;;;;;0.74;94.38;101056.78;4831643;29;20186;-81
2021/12/07 12:58:35;;;;;;;30.83;20.50;;;;;;;0.58;94.11;101058.44;4819687;29;20546;-81
2021/12/07 13:01:16;;;;;;;33.05;21.17;;;;;;;0.54;93.44;101053.16;4795944;29;20219;-80
2021/12/07 13:03:57;;;;;;;31.55;21.98;;;;;;;0.54;93.54;101046.09;4812231;29;20186;-80
2021/12/07 13:06:44;;;;;;;31.75;21.45;;;;;;;0.63;93.61;101047.91;4797280;29;20656;-80
2021/12/07 13:09:18;;;;;;;31.83;21.40;;;;;;;0.57;93.56;101030.34;4828231;29;20171;-80
2021/12/07 13:11:49;;;;;;;34.00;22.50;;;;;;;0.59;93.58;101035.59;4827900;29;20206;-80
2021/12/07 13:14:21;;;;;;;37.40;23.33;;;;;;;0.54;93.89;101032.94;4811237;29;20167;-82
2021/12/07 13:16:52;;;;;;;30.98;20.88;;;;;;;0.53;93.93;101027.66;4794497;29;20188;-82